LICC/CTA METAR and TAF weather

Enter ICAO airport designator
Station Type Date Time Source
LICC METAR 2020/01/23 05:50 UTC NOAA

LICC 230550Z 24007KT CAVOK 05/04 Q1029


Station Type Date Time Source
LICC Decoded METAR 2020/01/23 05:50 UTC NOAA

Catania / Fontanarossa, Italy (LICC) 37-28N 015-03E 17M
Jan 23, 2020 - 12:50 AM EST / 2020.01.23 0550 UTC
Wind: from the WSW (240 degrees) at 8 MPH (7 KT):0
Visibility: greater than 7 mile(s):0
Temperature: 41 F (5 C)
Dew Point: 39 F (4 C)
Relative Humidity: 93%
Pressure (altimeter): 30.39 in. Hg (1029 hPa)
ob: LICC 230550Z 24007KT CAVOK 05/04 Q1029
cycle: 6

Station Type Date Time Source
LICC TAF 2020/01/23 06:22 UTC NOAA

TAF LICC 230500Z 2306/2406 25007KT CAVOK
BECMG 2309/2311 07010KT
BECMG 2319/2321 26005KT

Example: see airport list